createdAt,value
2019-01-27T00:00:51.615Z,51.55
2019-01-27T00:03:23.203Z,54.60
2019-01-27T00:05:53.629Z,50.23
2019-01-27T00:08:24.024Z,52.55
2019-01-27T00:10:57.505Z,51.42
2019-01-27T00:13:28.333Z,50.12
2019-01-27T00:15:59.123Z,49.38
2019-01-27T00:18:29.839Z,49.67
2019-01-27T00:21:00.628Z,48.55
2019-01-27T00:23:31.284Z,47.60
2019-01-27T00:26:01.822Z,47.73
2019-01-27T00:28:34.162Z,48.58
2019-01-27T00:31:04.547Z,48.58
2019-01-27T00:33:35.080Z,45.83
2019-01-27T00:36:06.034Z,44.93
2019-01-27T00:38:36.398Z,44.55
2019-01-27T00:41:06.807Z,45.33
2019-01-27T00:43:37.482Z,44.30
2019-01-27T00:46:08.206Z,43.58
2019-01-27T00:48:38.962Z,44.93
2019-01-27T00:51:09.415Z,44.83
2019-01-27T00:53:40.036Z,42.93
2019-01-27T00:56:10.556Z,42.00
2019-01-27T00:58:40.888Z,41.92
2019-01-27T01:01:11.515Z,40.40
2019-01-27T01:03:42.217Z,42.43
2019-01-27T01:06:14.499Z,41.33
2019-01-27T01:08:45.202Z,38.60
2019-01-27T01:11:16.174Z,40.98
2019-01-27T01:13:46.998Z,41.23
2019-01-27T01:16:18.576Z,39.73
2019-01-27T01:18:49.121Z,40.50
2019-01-27T01:21:19.781Z,38.98
2019-01-27T01:23:50.551Z,39.80
2019-01-27T01:26:21.263Z,36.70
2019-01-27T01:28:51.713Z,39.40
2019-01-27T01:31:22.136Z,37.33
2019-01-27T01:33:52.722Z,36.88
2019-01-27T01:36:24.283Z,36.73
2019-01-27T01:38:54.917Z,36.15
2019-01-27T01:41:25.584Z,37.35
2019-01-27T01:43:59.086Z,37.28
2019-01-27T01:46:29.546Z,35.38
2019-01-27T01:49:01.237Z,36.28
2019-01-27T01:51:32.021Z,34.83
2019-01-27T01:54:03.545Z,33.88
2019-01-27T01:56:34.075Z,34.38
2019-01-27T01:59:04.742Z,34.33
2019-01-27T02:01:35.222Z,35.60
2019-01-27T02:04:05.760Z,33.53
2019-01-27T02:06:36.413Z,34.38
2019-01-27T02:09:11.123Z,34.38
2019-01-27T02:11:41.578Z,33.70
2019-01-27T02:14:12.232Z,32.63
2019-01-27T02:16:42.866Z,32.33
2019-01-27T02:19:13.530Z,31.97
2019-01-27T02:21:45.248Z,32.55
2019-01-27T02:24:15.843Z,31.25
2019-01-27T02:26:46.461Z,31.93
2019-01-27T02:29:18.534Z,31.73
2019-01-27T02:31:49.249Z,31.57
2019-01-27T02:34:19.697Z,31.90
2019-01-27T02:36:50.404Z,28.55
2019-01-27T02:39:20.870Z,29.27
2019-01-27T02:41:51.217Z,31.23
2019-01-27T02:44:21.503Z,30.35
2019-01-27T02:46:52.093Z,30.30
2019-01-27T02:49:22.543Z,28.80
2019-01-27T02:51:53.302Z,29.02
2019-01-27T02:54:23.699Z,29.63
2019-01-27T02:56:54.292Z,27.93
2019-01-27T02:59:24.688Z,26.37
2019-01-27T03:01:55.099Z,29.05
2019-01-27T03:04:26.196Z,28.90
2019-01-27T03:07:04.449Z,29.37
2019-01-27T03:09:40.986Z,27.85
2019-01-27T03:12:11.715Z,27.48
2019-01-27T03:14:42.032Z,26.65
2019-01-27T03:17:15.254Z,27.07
2019-01-27T03:19:49.290Z,26.60
2019-01-27T03:22:19.767Z,26.75
2019-01-27T03:24:50.516Z,27.22
2019-01-27T03:27:21.079Z,26.75
2019-01-27T03:29:51.588Z,25.55
2019-01-27T03:32:22.122Z,24.92
2019-01-27T03:34:52.595Z,25.75
2019-01-27T03:37:23.225Z,25.25
2019-01-27T03:39:53.901Z,24.52
2019-01-27T03:42:24.559Z,27.07
2019-01-27T03:44:54.945Z,24.72
2019-01-27T03:47:25.599Z,26.37
2019-01-27T03:49:56.212Z,24.32
2019-01-27T03:52:27.978Z,24.57
2019-01-27T03:54:58.411Z,24.75
2019-01-27T03:57:29.024Z,24.57
2019-01-27T03:59:59.646Z,25.23
2019-01-27T04:02:30.398Z,23.73
2019-01-27T04:05:01.194Z,23.50
2019-01-27T04:07:32.168Z,24.05
2019-01-27T04:10:02.577Z,23.30
2019-01-27T04:12:33.135Z,23.90
2019-01-27T04:15:03.710Z,24.18
2019-01-27T04:17:34.896Z,22.55
2019-01-27T04:20:06.658Z,23.62
2019-01-27T04:22:38.300Z,22.13
2019-01-27T04:25:08.976Z,23.45
2019-01-27T04:27:39.463Z,22.52
2019-01-27T04:30:17.007Z,23.47
2019-01-27T04:32:47.637Z,21.80
2019-01-27T04:35:17.942Z,21.70
2019-01-27T04:37:48.574Z,21.87
2019-01-27T04:40:20.373Z,21.45
2019-01-27T04:42:50.712Z,22.37
2019-01-27T04:45:26.592Z,20.85
2019-01-27T04:47:57.076Z,22.00
2019-01-27T04:50:27.514Z,20.55
2019-01-27T04:52:58.139Z,21.42
2019-01-27T04:55:31.681Z,20.70
2019-01-27T04:58:02.089Z,20.45
2019-01-27T05:00:32.947Z,19.48
2019-01-27T05:03:23.764Z,20.15
2019-01-27T05:05:54.157Z,20.15
2019-01-27T05:08:24.834Z,18.85
2019-01-27T05:10:55.434Z,19.60
2019-01-27T05:13:25.919Z,20.15
2019-01-27T05:15:56.421Z,19.15
2019-01-27T05:18:26.926Z,19.52
2019-01-27T05:20:57.464Z,19.65
2019-01-27T05:23:27.787Z,19.12
2019-01-27T05:25:58.674Z,19.62
2019-01-27T05:28:29.359Z,18.60
2019-01-27T05:30:59.930Z,19.32
2019-01-27T05:33:30.395Z,19.05
2019-01-27T05:36:00.886Z,18.77
2019-01-27T05:38:32.339Z,19.90
2019-01-27T05:41:02.837Z,18.17
2019-01-27T05:43:33.428Z,18.17
2019-01-27T05:46:03.926Z,16.65
2019-01-27T05:48:34.348Z,17.82
2019-01-27T05:51:04.804Z,27.95
2019-01-27T05:53:35.359Z,26.15
2019-01-27T05:56:05.710Z,27.45
2019-01-27T05:58:36.307Z,28.75
2019-01-27T06:01:06.779Z,30.20
2019-01-27T06:03:37.149Z,38.67
2019-01-27T06:06:07.631Z,36.35
2019-01-27T06:08:38.452Z,39.50
2019-01-27T06:11:08.900Z,48.55
2019-01-27T06:13:39.276Z,46.53
2019-01-27T06:16:09.776Z,49.42
2019-01-27T06:18:40.252Z,51.10
2019-01-27T06:21:10.649Z,42.50
2019-01-27T06:23:41.381Z,40.75
2019-01-27T06:26:11.845Z,43.58
2019-01-27T06:28:42.852Z,49.42
2019-01-27T06:31:13.380Z,49.25
2019-01-27T06:33:51.453Z,54.98
2019-01-27T06:36:22.250Z,52.45
2019-01-27T06:38:53.333Z,56.75
2019-01-27T06:41:23.801Z,54.15
2019-01-27T06:43:54.483Z,53.33
2019-01-27T06:46:25.455Z,62.35
2019-01-27T06:48:58.651Z,55.52
2019-01-27T06:51:29.692Z,54.95
2019-01-27T06:54:00.349Z,53.68
2019-01-27T06:56:31.956Z,52.15
2019-01-27T06:59:07.891Z,52.45
2019-01-27T07:01:52.541Z,52.60
2019-01-27T07:04:28.445Z,52.58
2019-01-27T07:07:29.946Z,50.20
2019-01-27T07:10:19.394Z,53.92
2019-01-27T07:13:03.357Z,57.75
2019-01-27T07:16:00.006Z,59.83
2019-01-27T07:18:51.897Z,68.45
2019-01-27T07:21:41.721Z,65.95
2019-01-27T07:24:23.169Z,71.47
2019-01-27T07:27:12.541Z,67.53
2019-01-27T07:30:01.455Z,63.85
2019-01-27T07:32:50.158Z,64.92
2019-01-27T07:35:39.398Z,70.08
2019-01-27T07:38:21.852Z,66.92
2019-01-27T07:41:13.766Z,67.85
2019-01-27T07:45:03.834Z,65.28
2019-01-27T07:47:55.357Z,62.35
2019-01-27T07:52:03.111Z,64.45
2019-01-27T07:54:50.840Z,63.75
2019-01-27T07:57:38.774Z,82.88
2019-01-27T08:00:34.196Z,76.60
2019-01-27T08:03:21.783Z,72.08
2019-01-27T08:06:10.865Z,76.80
2019-01-27T08:08:58.710Z,72.70
2019-01-27T08:11:43.225Z,76.47
2019-01-27T08:14:29.299Z,73.00
2019-01-27T08:17:11.853Z,67.22
2019-01-27T08:20:04.620Z,67.32
2019-01-27T08:22:42.318Z,64.40
2019-01-27T08:25:47.958Z,69.75
2019-01-27T08:28:43.655Z,61.88
2019-01-27T08:31:31.816Z,59.23
2019-01-27T08:34:19.441Z,67.95
2019-01-27T08:36:58.883Z,64.77
2019-01-27T08:39:43.547Z,65.40
2019-01-27T08:42:48.233Z,62.48
2019-01-27T08:45:52.481Z,61.18
2019-01-27T08:48:22.819Z,63.23
2019-01-27T08:50:53.382Z,71.77
2019-01-27T08:53:23.917Z,69.15
2019-01-27T08:55:54.461Z,75.17
2019-01-27T08:58:26.716Z,73.87
2019-01-27T09:01:10.213Z,72.87
2019-01-27T09:03:56.253Z,75.45
2019-01-27T09:06:42.761Z,70.42
2019-01-27T09:09:32.377Z,79.00
2019-01-27T09:12:25.137Z,74.25
2019-01-27T09:15:29.664Z,84.17
2019-01-27T09:18:26.106Z,88.17
2019-01-27T09:21:09.248Z,83.90
2019-01-27T09:23:57.393Z,88.37
2019-01-27T09:26:33.547Z,88.33
2019-01-27T09:29:08.377Z,99.97
2019-01-27T09:32:06.906Z,99.13
2019-01-27T09:34:59.431Z,99.03
2019-01-27T09:37:47.988Z,99.55
2019-01-27T09:40:52.544Z,103.22
2019-01-27T09:43:44.826Z,94.50
2019-01-27T09:46:46.343Z,93.67
2019-01-27T09:49:44.931Z,107.80
2019-01-27T09:52:21.054Z,147.10
2019-01-27T09:55:07.838Z,230.30
2019-01-27T09:57:47.318Z,207.98
2019-01-27T10:00:29.412Z,207.87
2019-01-27T10:03:15.848Z,192.20
2019-01-27T10:05:58.087Z,173.40
2019-01-27T10:08:39.681Z,175.38
2019-01-27T10:11:41.284Z,175.95
2019-01-27T10:14:21.227Z,167.32
2019-01-27T10:17:11.616Z,173.47
2019-01-27T10:20:04.381Z,160.55
2019-01-27T10:23:05.861Z,178.50
2019-01-27T10:25:49.712Z,165.70
2019-01-27T10:28:38.691Z,169.85
2019-01-27T10:31:43.883Z,155.32
2019-01-27T10:34:25.512Z,175.82
2019-01-27T10:37:19.867Z,195.53
2019-01-27T10:40:09.888Z,185.32
2019-01-27T10:42:50.461Z,179.65
2019-01-27T10:45:34.747Z,177.05
2019-01-27T10:48:26.779Z,180.05
2019-01-27T10:51:14.636Z,191.65
2019-01-27T10:54:06.847Z,207.07
2019-01-27T10:56:56.004Z,228.18
2019-01-27T10:59:48.182Z,217.05
2019-01-27T11:02:43.299Z,217.35
2019-01-27T11:05:33.137Z,215.97
2019-01-27T11:08:22.568Z,218.25
2019-01-27T11:11:03.449Z,199.85
2019-01-27T11:13:52.651Z,208.35
2019-01-27T11:16:40.473Z,192.72
2019-01-27T11:19:28.358Z,187.62
2019-01-27T11:22:33.519Z,195.15
2019-01-27T11:25:25.474Z,176.85
2019-01-27T11:28:20.732Z,181.40
2019-01-27T11:31:00.597Z,176.95
2019-01-27T11:33:45.004Z,175.12
2019-01-27T11:36:33.147Z,173.28
2019-01-27T11:39:21.756Z,178.25
2019-01-27T11:42:09.695Z,182.60
2019-01-27T11:44:55.522Z,179.50
2019-01-27T11:47:43.625Z,192.45
2019-01-27T11:50:35.913Z,184.72
2019-01-27T11:53:08.189Z,179.95
2019-01-27T11:55:38.615Z,187.03
2019-01-27T11:58:09.239Z,183.47
2019-01-27T12:00:41.689Z,184.85
2019-01-27T12:03:13.664Z,183.45
2019-01-27T12:05:44.294Z,190.95
2019-01-27T12:08:14.660Z,181.35
2019-01-27T12:10:45.308Z,186.45
2019-01-27T12:13:15.905Z,198.87
2019-01-27T12:15:46.208Z,198.60
2019-01-27T12:18:16.636Z,202.18
2019-01-27T12:20:47.163Z,216.97
2019-01-27T12:23:17.580Z,217.28
2019-01-27T12:25:48.146Z,217.18
2019-01-27T12:28:18.549Z,219.65
2019-01-27T12:30:48.962Z,219.07
2019-01-27T12:33:19.468Z,221.32
2019-01-27T12:35:49.790Z,218.12
2019-01-27T12:38:20.354Z,220.20
2019-01-27T12:40:50.675Z,213.60
2019-01-27T12:43:21.004Z,217.77
2019-01-27T12:45:51.347Z,215.77
2019-01-27T12:48:21.662Z,220.63
2019-01-27T12:50:52.081Z,226.05
2019-01-27T12:53:22.791Z,217.25
2019-01-27T12:55:53.038Z,217.22
2019-01-27T12:58:23.275Z,214.90
2019-01-27T13:00:57.473Z,213.22
2019-01-27T13:03:27.704Z,208.43
2019-01-27T13:05:58.102Z,198.07
2019-01-27T13:08:29.893Z,200.90
2019-01-27T13:11:05.661Z,193.68
2019-01-27T13:13:36.977Z,189.60
2019-01-27T13:16:07.432Z,190.55
2019-01-27T13:18:37.825Z,183.60
2019-01-27T13:21:08.250Z,182.82
2019-01-27T13:23:38.814Z,185.48
2019-01-27T13:26:09.264Z,177.60
2019-01-27T13:28:39.726Z,178.05
2019-01-27T13:31:10.125Z,171.75
2019-01-27T13:33:40.409Z,160.82
2019-01-27T13:36:10.868Z,168.15
2019-01-27T13:38:41.129Z,165.70
2019-01-27T13:41:11.469Z,166.15
2019-01-27T13:43:41.759Z,165.82
2019-01-27T13:46:15.082Z,156.47
2019-01-27T13:48:45.304Z,153.53
2019-01-27T13:51:16.651Z,147.72
2019-01-27T13:53:47.284Z,148.40
2019-01-27T13:56:17.713Z,146.95
2019-01-27T13:58:48.074Z,151.93
2019-01-27T14:01:18.525Z,152.35
2019-01-27T14:03:49.095Z,153.30
2019-01-27T14:06:19.535Z,158.27
2019-01-27T14:08:51.507Z,149.40
2019-01-27T14:11:22.349Z,153.40
2019-01-27T14:13:52.723Z,148.55
2019-01-27T14:16:23.265Z,142.32
2019-01-27T14:18:53.633Z,147.05
2019-01-27T14:21:23.976Z,144.85
2019-01-27T14:23:54.400Z,145.87
2019-01-27T14:26:24.696Z,139.47
2019-01-27T14:28:58.388Z,139.25
2019-01-27T14:31:30.274Z,138.07
2019-01-27T14:34:00.749Z,138.68
2019-01-27T14:36:31.041Z,136.35
2019-01-27T14:39:01.423Z,148.50
2019-01-27T14:41:33.326Z,147.75
2019-01-27T14:44:03.711Z,145.53
2019-01-27T14:46:34.054Z,150.80
2019-01-27T14:49:04.453Z,141.20
2019-01-27T14:51:34.902Z,140.32
2019-01-27T14:54:05.527Z,138.12
2019-01-27T14:56:35.932Z,135.95
2019-01-27T14:59:06.202Z,128.07
2019-01-27T15:01:36.845Z,138.52
2019-01-27T15:04:07.796Z,137.10
2019-01-27T15:06:38.220Z,133.20
2019-01-27T15:09:10.041Z,139.15
2019-01-27T15:11:40.394Z,140.57
2019-01-27T15:14:10.733Z,147.28
2019-01-27T15:16:41.093Z,136.82
2019-01-27T15:19:11.395Z,138.05
2019-01-27T15:21:41.976Z,135.45
2019-01-27T15:24:12.230Z,132.80
2019-01-27T15:26:42.603Z,130.63
2019-01-27T15:29:12.857Z,129.78
2019-01-27T15:31:43.194Z,133.85
2019-01-27T15:34:13.562Z,136.92
2019-01-27T15:36:43.945Z,135.10
2019-01-27T15:39:14.220Z,135.97
2019-01-27T15:41:44.634Z,137.22
2019-01-27T15:44:14.977Z,131.05
2019-01-27T15:46:45.273Z,126.53
2019-01-27T15:49:15.608Z,126.80
2019-01-27T15:51:45.976Z,127.47
2019-01-27T15:54:16.298Z,122.40
2019-01-27T15:56:48.035Z,119.82
2019-01-27T15:59:18.317Z,117.05
2019-01-27T16:01:48.795Z,115.65
2019-01-27T16:04:19.180Z,113.37
2019-01-27T16:06:49.469Z,110.50
2019-01-27T16:09:20.946Z,107.40
2019-01-27T16:11:55.297Z,104.17
2019-01-27T16:14:27.337Z,105.55
2019-01-27T16:16:58.104Z,102.05
2019-01-27T16:19:28.529Z,99.58
2019-01-27T16:22:01.142Z,95.05
2019-01-27T16:24:35.969Z,96.35
2019-01-27T16:27:06.883Z,93.10
2019-01-27T16:30:09.045Z,90.12
2019-01-27T16:32:42.265Z,86.60
2019-01-27T16:35:18.349Z,87.45
2019-01-27T16:37:50.735Z,84.52
2019-01-27T16:40:25.106Z,83.90
2019-01-27T16:42:56.128Z,84.50
2019-01-27T16:45:27.735Z,86.57
2019-01-27T16:48:00.545Z,86.70
2019-01-27T16:50:31.814Z,86.85
2019-01-27T16:53:04.592Z,85.22
2019-01-27T16:55:36.308Z,83.40
2019-01-27T16:58:06.568Z,85.45
2019-01-27T17:00:39.106Z,84.17
2019-01-27T17:03:09.619Z,83.10
2019-01-27T17:05:44.394Z,79.60
2019-01-27T17:08:15.847Z,84.97
2019-01-27T17:10:46.115Z,83.70
2019-01-27T17:13:16.859Z,81.82
2019-01-27T17:15:47.256Z,81.53
2019-01-27T17:18:17.507Z,85.70
2019-01-27T17:20:47.960Z,82.42
2019-01-27T17:23:20.718Z,79.67
2019-01-27T17:25:53.583Z,82.55
2019-01-27T17:28:22.999Z,82.90
2019-01-27T17:30:54.194Z,85.55
2019-01-27T17:33:24.551Z,85.80
2019-01-27T17:35:54.825Z,80.17
2019-01-27T17:38:25.142Z,88.55
2019-01-27T17:40:55.410Z,86.28
2019-01-27T17:43:25.810Z,89.32
2019-01-27T17:45:56.063Z,86.02
2019-01-27T17:48:27.139Z,91.20
2019-01-27T17:50:57.544Z,88.20
2019-01-27T17:53:30.339Z,87.55
2019-01-27T17:56:00.675Z,85.87
2019-01-27T17:59:01.886Z,83.75
2019-01-27T18:02:06.165Z,86.50
2019-01-27T18:04:55.306Z,84.30
2019-01-27T18:07:36.805Z,82.62
2019-01-27T18:10:27.112Z,84.90
2019-01-27T18:13:07.636Z,85.83
2019-01-27T18:15:38.027Z,88.30
2019-01-27T18:18:08.358Z,87.82
2019-01-27T18:20:39.719Z,89.07
2019-01-27T18:23:10.105Z,86.02
2019-01-27T18:25:40.472Z,88.30
2019-01-27T18:28:10.735Z,89.45
2019-01-27T18:30:42.130Z,91.63
2019-01-27T18:33:12.519Z,90.07
2019-01-27T18:35:42.768Z,90.80
2019-01-27T18:38:12.994Z,89.47
2019-01-27T18:40:45.236Z,88.42
2019-01-27T18:43:15.595Z,88.82
2019-01-27T18:45:45.912Z,88.60
2019-01-27T18:48:16.256Z,88.42
2019-01-27T18:50:46.713Z,87.97
2019-01-27T18:53:49.520Z,95.97
2019-01-27T18:56:32.166Z,98.50
2019-01-27T18:59:27.725Z,101.15
2019-01-27T19:02:08.423Z,98.30
2019-01-27T19:05:01.647Z,102.95
2019-01-27T19:07:43.351Z,99.13
2019-01-27T19:10:43.664Z,102.67
2019-01-27T19:13:40.026Z,100.92
2019-01-27T19:16:35.896Z,100.87
2019-01-27T19:19:40.767Z,103.47
2019-01-27T19:22:38.841Z,105.07
2019-01-27T19:25:40.934Z,105.32
2019-01-27T19:28:40.299Z,100.50
2019-01-27T19:31:17.921Z,102.78
2019-01-27T19:34:16.458Z,100.65
2019-01-27T19:37:24.395Z,101.38
2019-01-27T19:40:20.357Z,102.87
2019-01-27T19:43:13.625Z,101.87
2019-01-27T19:46:15.783Z,102.22
2019-01-27T19:49:04.882Z,98.67
2019-01-27T19:51:52.010Z,100.25
2019-01-27T19:54:40.109Z,96.40
2019-01-27T19:57:29.336Z,102.12
2019-01-27T20:00:16.704Z,96.25
2019-01-27T20:03:11.868Z,99.50
2019-01-27T20:06:01.094Z,99.60
2019-01-27T20:08:53.311Z,102.53
2019-01-27T20:11:42.135Z,99.80
2019-01-27T20:14:32.530Z,101.15
2019-01-27T20:17:13.762Z,100.25
2019-01-27T20:19:52.727Z,111.42
2019-01-27T20:22:43.273Z,103.12
2019-01-27T20:25:48.092Z,102.17
2019-01-27T20:28:41.115Z,98.97
2019-01-27T20:31:30.339Z,95.70
2019-01-27T20:34:31.866Z,99.28
2019-01-27T20:37:08.964Z,108.55
2019-01-27T20:39:47.920Z,102.72
2019-01-27T20:42:24.064Z,104.63
2019-01-27T20:45:13.167Z,102.38
2019-01-27T20:48:03.913Z,100.20
2019-01-27T20:50:48.077Z,113.47
2019-01-27T20:53:32.495Z,134.20
2019-01-27T20:56:15.258Z,132.80
2019-01-27T20:58:54.019Z,137.65
2019-01-27T21:01:41.163Z,129.70
2019-01-27T21:04:39.887Z,135.07
2019-01-27T21:07:31.158Z,141.55
2019-01-27T21:10:29.157Z,136.55
2019-01-27T21:13:21.236Z,147.53
2019-01-27T21:16:20.626Z,138.55
2019-01-27T21:19:08.808Z,149.18
2019-01-27T21:21:39.489Z,147.65
2019-01-27T21:24:09.986Z,143.10
2019-01-27T21:26:40.440Z,150.32
2019-01-27T21:29:10.925Z,165.15
2019-01-27T21:31:41.433Z,144.80
2019-01-27T21:34:11.805Z,148.72
2019-01-27T21:36:42.025Z,140.85
2019-01-27T21:39:13.917Z,147.78
2019-01-27T21:41:48.107Z,136.68
2019-01-27T21:44:18.521Z,137.72
2019-01-27T21:46:49.827Z,143.02
2019-01-27T21:49:20.298Z,145.17
2019-01-27T21:51:50.758Z,147.50
2019-01-27T21:54:21.230Z,138.03
2019-01-27T21:56:52.198Z,139.32
2019-01-27T21:59:22.553Z,142.75
2019-01-27T22:01:52.932Z,151.47
2019-01-27T22:04:23.210Z,171.13
2019-01-27T22:06:53.623Z,149.75
2019-01-27T22:09:23.890Z,142.20
2019-01-27T22:11:54.158Z,150.90
2019-01-27T22:14:24.420Z,138.62
2019-01-27T22:16:54.899Z,140.15
2019-01-27T22:19:26.537Z,139.80
2019-01-27T22:21:58.426Z,143.15
2019-01-27T22:24:28.722Z,140.75
2019-01-27T22:26:59.422Z,141.60
2019-01-27T22:29:30.105Z,136.05
2019-01-27T22:32:00.846Z,137.03
2019-01-27T22:34:31.063Z,137.80
2019-01-27T22:37:01.355Z,142.80
2019-01-27T22:39:31.659Z,144.35
2019-01-27T22:42:02.241Z,147.78
2019-01-27T22:44:32.551Z,150.18
2019-01-27T22:47:02.822Z,144.57
2019-01-27T22:49:33.075Z,145.07
2019-01-27T22:52:03.463Z,146.65
2019-01-27T22:54:33.810Z,146.98
2019-01-27T22:57:04.173Z,146.80
2019-01-27T22:59:34.519Z,144.17
2019-01-27T23:02:05.140Z,141.80
2019-01-27T23:04:35.440Z,146.68
2019-01-27T23:07:05.744Z,144.80
2019-01-27T23:09:38.183Z,142.20
2019-01-27T23:12:08.436Z,143.45
2019-01-27T23:14:38.738Z,140.92
2019-01-27T23:17:09.021Z,139.20
2019-01-27T23:19:39.265Z,137.32
2019-01-27T23:22:09.664Z,139.30
2019-01-27T23:24:39.902Z,142.03
2019-01-27T23:27:11.285Z,139.25
2019-01-27T23:29:41.642Z,141.05
2019-01-27T23:32:11.982Z,137.52
2019-01-27T23:34:42.194Z,140.80
2019-01-27T23:37:12.537Z,137.30
2019-01-27T23:39:42.761Z,137.25
2019-01-27T23:42:13.302Z,136.43
2019-01-27T23:44:43.589Z,138.62
2019-01-27T23:47:13.858Z,134.95
2019-01-27T23:49:44.228Z,130.60
2019-01-27T23:52:14.453Z,134.27
2019-01-27T23:54:44.795Z,130.95
2019-01-27T23:57:16.006Z,133.32
2019-01-27T23:59:46.356Z,130.90
